Time;durP1;ratioP1;P1;durP2;ratioP2;P2;SDS_P1;SDS_P2;PMS_P1;PMS_P2;Temp;Humidity;BMP_temperature;BMP_pressure;BME280_temperature;BME280_humidity;BME280_pressure;Samples;Min_cycle;Max_cycle;Signal;HPM_P1;HPM_P2
2023/06/06 00:00:50;;;;;;;7.25;5.40;;;;;;;22.13;62.31;96479.31;5038905;28;20038;-32
2023/06/06 00:03:20;;;;;;;10.90;5.97;;;;;;;22.14;61.98;96478.06;5036537;28;20029;-33
2023/06/06 00:05:48;;;;;;;8.60;5.50;;;;;;;22.10;62.12;96479.59;5038823;28;20033;-33
2023/06/06 00:08:13;;;;;;;10.55;5.25;;;;;;;22.07;62.25;96477.81;5036179;28;20022;-32
2023/06/06 00:10:39;;;;;;;9.23;5.75;;;;;;;22.01;62.36;96479.81;5040525;28;20020;-32
2023/06/06 00:13:04;;;;;;;6.35;5.40;;;;;;;22.10;62.31;96485.13;5035182;28;20068;-32
2023/06/06 00:15:30;;;;;;;8.10;5.35;;;;;;;22.10;62.17;96488.63;5041875;28;20024;-32
2023/06/06 00:17:56;;;;;;;8.07;5.22;;;;;;;22.07;62.55;96489.63;5041796;28;20475;-32
2023/06/06 00:20:22;;;;;;;5.93;5.18;;;;;;;22.12;62.02;96490.91;5034746;28;20063;-33
2023/06/06 00:22:49;;;;;;;7.30;5.20;;;;;;;22.03;61.99;96489.13;5034612;28;20017;-33
2023/06/06 00:25:14;;;;;;;11.13;5.60;;;;;;;21.97;62.40;96477.28;5034598;28;20024;-32
2023/06/06 00:27:40;;;;;;;8.15;4.97;;;;;;;22.13;61.98;96489.66;5041740;28;20029;-33
2023/06/06 00:30:06;;;;;;;7.63;5.25;;;;;;;22.13;61.95;96490.38;5040546;28;20576;-32
2023/06/06 00:32:32;;;;;;;8.55;5.22;;;;;;;22.06;61.90;96488.13;5035648;28;20026;-33
2023/06/06 00:34:57;;;;;;;8.60;5.20;;;;;;;22.05;61.99;96474.81;5034379;28;20517;-32
2023/06/06 00:37:23;;;;;;;8.05;5.28;;;;;;;22.01;62.23;96469.53;5034357;28;20027;-32
2023/06/06 00:39:49;;;;;;;11.85;5.63;;;;;;;21.98;62.44;96475.28;5036888;28;20025;-32
2023/06/06 00:42:14;;;;;;;9.52;5.65;;;;;;;22.04;62.09;96470.53;5039626;28;20021;-32
2023/06/06 00:44:40;;;;;;;9.05;5.60;;;;;;;21.92;62.48;96460.72;5034608;28;20035;-32
2023/06/06 00:47:06;;;;;;;11.63;5.82;;;;;;;21.95;62.46;96463.22;5039389;28;20096;-33
2023/06/06 00:49:35;;;;;;;8.48;5.63;;;;;;;22.02;62.58;96464.75;5034305;28;20013;-34
2023/06/06 00:52:01;;;;;;;11.02;6.18;;;;;;;22.00;62.30;96467.28;5041039;28;20025;-32
2023/06/06 00:54:27;;;;;;;10.68;5.38;;;;;;;21.90;62.57;96452.94;5041079;28;20060;-32
2023/06/06 00:56:53;;;;;;;7.72;5.38;;;;;;;21.93;62.53;96462.22;5041589;28;20029;-32
2023/06/06 00:59:23;;;;;;;8.23;6.18;;;;;;;22.01;62.34;96463.25;5032910;28;20025;-32
2023/06/06 01:01:48;;;;;;;9.40;5.50;;;;;;;22.04;62.14;96468.53;5033484;28;20082;-32
2023/06/06 01:04:15;;;;;;;8.43;5.60;;;;;;;22.00;61.55;96462.53;5034485;28;20373;-32
2023/06/06 01:06:41;;;;;;;9.43;5.70;;;;;;;22.01;62.26;96463.25;5038284;28;20112;-32
2023/06/06 01:09:09;;;;;;;7.97;6.03;;;;;;;21.96;62.14;96470.25;5049859;28;20156;-33
2023/06/06 01:11:43;;;;;;;8.32;5.63;;;;;;;21.99;62.11;96474.81;5040166;28;20526;-33
2023/06/06 01:14:13;;;;;;;7.78;6.05;;;;;;;22.11;61.34;96483.88;5033058;28;20557;-32
2023/06/06 01:16:40;;;;;;;7.07;5.13;;;;;;;21.90;62.77;96485.31;5033996;28;20009;-33
2023/06/06 01:19:11;;;;;;;9.55;5.78;;;;;;;22.00;61.88;96484.63;5033525;28;20032;-33
2023/06/06 01:21:44;;;;;;;8.43;5.30;;;;;;;21.96;62.18;96494.34;5026386;28;20064;-32
2023/06/06 01:24:10;;;;;;;9.50;6.22;;;;;;;22.02;61.97;96487.59;5040737;28;20036;-33
2023/06/06 01:26:35;;;;;;;7.80;5.93;;;;;;;22.01;62.49;96488.09;5036212;28;20423;-32
2023/06/06 01:29:01;;;;;;;8.07;5.75;;;;;;;21.96;62.42;96480.56;5038735;28;20478;-32
2023/06/06 01:31:42;;;;;;;9.05;5.65;;;;;;;21.95;62.23;96481.81;5033941;28;20043;-33
2023/06/06 01:34:15;;;;;;;8.73;5.50;;;;;;;21.98;61.88;96483.56;5033831;28;20468;-32
2023/06/06 01:36:55;;;;;;;9.50;5.45;;;;;;;21.97;62.23;96474.53;5040896;28;20044;-33
2023/06/06 01:39:24;;;;;;;8.32;5.68;;;;;;;22.10;61.95;96482.34;5033569;28;20083;-33
2023/06/06 01:41:54;;;;;;;8.05;5.32;;;;;;;21.94;62.41;96480.28;5033942;28;20030;-33
2023/06/06 01:44:21;;;;;;;8.30;5.40;;;;;;;21.93;62.26;96478.78;5033338;28;20025;-32
2023/06/06 01:46:47;;;;;;;9.38;5.57;;;;;;;21.95;62.05;96463.22;5048229;28;20029;-33
2023/06/06 01:49:15;;;;;;;8.07;5.65;;;;;;;21.94;62.42;96452.69;5037670;28;20032;-32
2023/06/06 01:51:40;;;;;;;6.63;5.40;;;;;;;21.96;62.00;96459.22;5042513;28;20027;-32
2023/06/06 01:54:06;;;;;;;7.40;5.53;;;;;;;21.97;62.13;96454.44;5033572;28;20029;-31
2023/06/06 01:56:33;;;;;;;6.93;5.32;;;;;;;21.95;62.38;96443.91;5033130;28;20014;-32
2023/06/06 01:59:00;;;;;;;7.80;5.50;;;;;;;21.90;62.08;96446.66;5033883;28;20025;-32
2023/06/06 02:01:26;;;;;;;7.90;5.80;;;;;;;21.91;62.31;96448.91;5033176;28;20484;-32
2023/06/06 02:03:51;;;;;;;10.27;6.15;;;;;;;21.98;62.22;96458.72;5040297;28;20032;-32
2023/06/06 02:06:17;;;;;;;7.30;5.43;;;;;;;22.02;61.99;96451.69;5033785;28;20506;-33
2023/06/06 02:08:42;;;;;;;9.45;5.47;;;;;;;22.02;62.29;96448.94;5039044;28;20414;-33
2023/06/06 02:11:08;;;;;;;6.07;5.20;;;;;;;22.00;62.37;96445.94;5035171;28;20025;-32
2023/06/06 02:13:33;;;;;;;10.00;5.88;;;;;;;21.88;62.36;96442.38;5033249;28;20018;-32
2023/06/06 02:15:58;;;;;;;10.00;5.88;;;;;;;22.04;62.06;96442.91;5040132;28;20035;-33
2023/06/06 02:18:24;;;;;;;7.25;5.38;;;;;;;21.91;62.11;96450.91;5035606;28;20075;-32
2023/06/06 02:20:49;;;;;;;7.30;5.38;;;;;;;21.88;62.67;96446.41;5038514;28;20045;-32
2023/06/06 02:23:17;;;;;;;8.20;5.65;;;;;;;21.69;62.78;96455.16;5033408;28;20107;-32
2023/06/06 02:25:43;;;;;;;8.15;5.72;;;;;;;21.85;62.18;96454.44;5028977;28;20060;-32
2023/06/06 02:28:08;;;;;;;10.25;5.82;;;;;;;21.88;62.75;96443.66;5044007;28;20053;-32
2023/06/06 02:30:34;;;;;;;11.68;6.55;;;;;;;21.88;62.33;96454.69;5044101;28;20428;-33
2023/06/06 02:33:00;;;;;;;10.23;6.25;;;;;;;21.97;62.57;96444.16;5043619;28;20366;-32
2023/06/06 02:35:26;;;;;;;7.78;6.38;;;;;;;21.83;63.01;96443.16;5036671;28;20029;-32
2023/06/06 02:37:51;;;;;;;8.68;5.57;;;;;;;21.92;62.39;96442.13;5036943;28;20088;-32
2023/06/06 02:40:17;;;;;;;10.13;6.55;;;;;;;21.86;62.39;96439.38;5036630;28;20026;-32
2023/06/06 02:42:42;;;;;;;7.63;5.70;;;;;;;21.58;63.81;96437.84;5033351;28;20036;-32
2023/06/06 02:45:09;;;;;;;7.60;6.10;;;;;;;21.78;63.03;96435.59;5036383;28;20025;-33
2023/06/06 02:47:35;;;;;;;8.82;6.40;;;;;;;21.84;62.51;96433.59;5036370;28;20385;-33
2023/06/06 02:50:02;;;;;;;9.50;6.55;;;;;;;21.82;62.72;96444.41;5037996;28;20022;-32
2023/06/06 02:52:28;;;;;;;9.57;6.25;;;;;;;21.86;62.93;96444.91;5041315;28;20033;-32
2023/06/06 02:54:54;;;;;;;9.80;5.93;;;;;;;21.72;63.34;96453.41;5034829;28;20045;-33
2023/06/06 02:57:21;;;;;;;8.18;6.05;;;;;;;21.64;63.50;96458.66;5036342;28;20499;-32
2023/06/06 02:59:47;;;;;;;8.63;6.60;;;;;;;21.84;62.09;96457.69;5043098;28;20036;-33
2023/06/06 03:02:15;;;;;;;9.73;6.22;;;;;;;21.82;62.13;96462.97;5043760;28;20101;-32
2023/06/06 03:04:44;;;;;;;9.38;6.43;;;;;;;21.81;61.86;96467.72;5036170;28;20022;-33
2023/06/06 03:07:10;;;;;;;12.15;5.93;;;;;;;21.74;62.35;96461.97;5035978;28;20409;-32
2023/06/06 03:09:37;;;;;;;7.85;5.70;;;;;;;21.63;62.47;96465.47;5043005;28;20029;-33
2023/06/06 03:12:03;;;;;;;10.57;6.22;;;;;;;21.73;62.05;96458.44;5042812;28;20023;-33
2023/06/06 03:14:28;;;;;;;6.97;5.40;;;;;;;21.78;61.81;96457.69;5038980;28;20024;-32
2023/06/06 03:16:56;;;;;;;10.23;5.88;;;;;;;21.74;62.30;96462.72;5040251;28;20013;-32
2023/06/06 03:19:22;;;;;;;9.90;6.00;;;;;;;21.85;61.47;96462.72;5036101;28;20080;-32
2023/06/06 03:21:47;;;;;;;8.30;5.68;;;;;;;21.83;61.61;96458.94;5035807;28;20338;-32
2023/06/06 03:24:15;;;;;;;6.32;5.18;;;;;;;21.72;62.25;96467.22;5035531;28;20087;-33
2023/06/06 03:26:44;;;;;;;7.97;6.00;;;;;;;21.68;62.20;96464.69;5038942;28;20388;-32
2023/06/06 03:29:10;;;;;;;9.75;6.07;;;;;;;21.72;61.82;96470.75;5046565;28;20021;-33
2023/06/06 03:31:37;;;;;;;6.95;5.65;;;;;;;21.74;61.63;96467.47;5042772;28;20040;-33
2023/06/06 03:34:03;;;;;;;9.32;5.38;;;;;;;21.73;61.86;96475.00;5035626;28;20028;-32
2023/06/06 03:36:32;;;;;;;8.93;5.47;;;;;;;21.70;62.10;96464.19;5034726;28;20381;-34
2023/06/06 03:39:00;;;;;;;8.00;5.20;;;;;;;21.62;61.97;96469.47;5028828;28;20353;-33
2023/06/06 03:41:26;;;;;;;8.70;5.63;;;;;;;21.65;62.55;96464.94;5042320;28;20024;-32
2023/06/06 03:43:52;;;;;;;8.75;5.43;;;;;;;21.66;62.48;96469.19;5037889;28;20040;-32
2023/06/06 03:46:17;;;;;;;9.75;5.68;;;;;;;21.68;62.33;96464.69;5047713;28;20022;-32
2023/06/06 03:48:43;;;;;;;9.57;6.10;;;;;;;21.62;62.83;96466.72;5041966;28;20021;-33
2023/06/06 03:51:08;;;;;;;13.90;6.68;;;;;;;21.76;62.41;96454.66;5042012;28;20021;-32
2023/06/06 03:53:33;;;;;;;13.75;7.07;;;;;;;21.79;61.84;96466.72;5035396;28;20537;-32
2023/06/06 03:55:59;;;;;;;11.20;6.00;;;;;;;21.81;61.82;96461.47;5042723;28;20056;-32
2023/06/06 03:58:25;;;;;;;10.95;6.60;;;;;;;21.67;62.72;96467.94;5042125;28;20025;-32
2023/06/06 04:00:51;;;;;;;9.82;6.30;;;;;;;21.61;62.48;96467.97;5034858;28;20036;-32
2023/06/06 04:03:17;;;;;;;11.05;6.35;;;;;;;21.73;62.22;96468.72;5035128;28;20501;-32
2023/06/06 04:05:44;;;;;;;9.93;6.68;;;;;;;21.73;62.30;96466.72;5035169;28;20036;-33
2023/06/06 04:08:10;;;;;;;8.90;5.88;;;;;;;21.78;62.20;96470.72;5043353;28;20025;-32
2023/06/06 04:10:36;;;;;;;9.25;6.13;;;;;;;21.71;62.13;96474.75;5045308;28;20447;-33
2023/06/06 04:13:02;;;;;;;7.80;5.90;;;;;;;21.73;61.85;96474.25;5037627;28;20056;-33
2023/06/06 04:15:28;;;;;;;11.88;5.95;;;;;;;21.70;62.00;96473.25;5035063;28;20017;-32
2023/06/06 04:17:54;;;;;;;8.00;5.72;;;;;;;21.76;61.87;96476.03;5034968;28;20352;-32
2023/06/06 04:20:19;;;;;;;7.47;5.70;;;;;;;21.75;61.72;96475.25;5035395;28;20507;-32
2023/06/06 04:22:45;;;;;;;8.95;5.85;;;;;;;21.79;61.31;96473.00;5041039;28;20112;-32
2023/06/06 04:25:13;;;;;;;9.07;5.82;;;;;;;21.73;61.62;96471.50;5041893;28;20023;-33
2023/06/06 04:27:40;;;;;;;7.82;5.53;;;;;;;21.67;62.03;96484.50;5048963;28;20017;-33
2023/06/06 04:30:06;;;;;;;9.38;5.25;;;;;;;21.54;62.35;96470.44;5034505;28;20036;-32
2023/06/06 04:32:32;;;;;;;6.53;5.10;;;;;;;21.71;61.54;96477.50;5041308;28;20066;-32
2023/06/06 04:34:58;;;;;;;7.18;5.72;;;;;;;21.65;62.10;96476.72;5040230;28;20025;-32
2023/06/06 04:37:27;;;;;;;6.22;4.85;;;;;;;21.58;62.15;96468.19;5040897;28;20017;-32
2023/06/06 04:39:53;;;;;;;6.30;4.65;;;;;;;21.71;61.72;96476.75;5041760;28;20013;-33
2023/06/06 04:42:21;;;;;;;7.05;5.30;;;;;;;21.62;62.13;96477.75;5033783;28;20469;-32
2023/06/06 04:44:46;;;;;;;7.53;5.15;;;;;;;21.64;61.95;96474.47;5033565;28;20389;-32
2023/06/06 04:47:14;;;;;;;7.28;5.00;;;;;;;21.61;62.03;96473.47;5038244;28;20025;-32
2023/06/06 04:49:40;;;;;;;8.43;5.57;;;;;;;21.82;61.65;96476.78;5036856;28;20444;-32
2023/06/06 04:52:12;;;;;;;6.47;5.03;;;;;;;21.73;61.97;96482.53;5034245;28;20381;-32
2023/06/06 04:54:38;;;;;;;7.72;5.38;;;;;;;21.78;61.77;96482.53;5034129;28;20061;-33
2023/06/06 04:57:15;;;;;;;9.45;5.50;;;;;;;21.68;62.67;96486.03;5034476;28;20017;-33
2023/06/06 04:59:41;;;;;;;7.32;5.00;;;;;;;21.71;62.71;96491.31;5034115;28;20021;-32
2023/06/06 05:02:07;;;;;;;7.22;5.82;;;;;;;21.76;62.50;96481.53;5034249;28;20163;-32
2023/06/06 05:04:32;;;;;;;10.02;6.05;;;;;;;21.79;62.75;96484.03;5041365;28;20014;-33
2023/06/06 05:06:59;;;;;;;10.43;6.32;;;;;;;21.78;63.34;96488.03;5040828;28;20025;-33
2023/06/06 05:09:25;;;;;;;9.80;6.53;;;;;;;21.72;63.40;96492.06;5026754;28;20032;-32
2023/06/06 05:11:52;;;;;;;10.60;6.35;;;;;;;21.68;63.07;96489.53;5033845;28;20147;-33
2023/06/06 05:14:23;;;;;;;8.65;6.80;;;;;;;21.73;62.97;96490.81;5034116;28;20028;-32
2023/06/06 05:16:53;;;;;;;9.95;6.93;;;;;;;21.74;63.46;96484.78;5038795;28;20090;-32
2023/06/06 05:19:19;;;;;;;9.30;6.40;;;;;;;21.77;63.36;96486.53;5036065;28;20029;-33
2023/06/06 05:21:45;;;;;;;10.73;7.00;;;;;;;21.82;63.57;96493.34;5039996;28;20021;-33
2023/06/06 05:24:11;;;;;;;10.00;6.40;;;;;;;21.63;64.13;96495.81;5033413;28;20025;-32
2023/06/06 05:26:36;;;;;;;10.70;7.05;;;;;;;21.76;63.85;96489.81;5033972;28;20035;-32
2023/06/06 05:29:02;;;;;;;8.93;6.75;;;;;;;21.78;63.58;96487.28;5033683;28;20112;-33
2023/06/06 05:31:28;;;;;;;9.10;6.90;;;;;;;21.70;64.07;96495.31;5041369;28;20041;-32
2023/06/06 05:33:54;;;;;;;12.80;8.00;;;;;;;21.68;63.94;96491.53;5046258;28;20025;-32
2023/06/06 05:36:20;;;;;;;10.38;7.07;;;;;;;21.67;64.23;96492.78;5033516;28;20051;-32
2023/06/06 05:38:46;;;;;;;10.25;7.90;;;;;;;21.73;64.29;96499.09;5033803;28;20025;-33
2023/06/06 05:41:12;;;;;;;10.88;7.50;;;;;;;21.79;64.00;96497.84;5033740;28;20029;-32
2023/06/06 05:43:38;;;;;;;10.13;7.78;;;;;;;21.68;64.39;96497.81;5040591;28;20021;-34
2023/06/06 05:46:03;;;;;;;13.07;8.38;;;;;;;21.78;64.07;96499.09;5036598;28;20473;-32
2023/06/06 05:48:29;;;;;;;11.95;8.15;;;;;;;21.76;64.51;96498.81;5037401;28;20033;-32
2023/06/06 05:50:56;;;;;;;12.48;7.28;;;;;;;21.69;64.88;96496.56;5040490;28;20111;-32
2023/06/06 05:53:23;;;;;;;11.95;7.65;;;;;;;21.82;64.74;96494.09;5033658;28;20536;-32
2023/06/06 05:55:49;;;;;;;14.00;8.68;;;;;;;21.82;64.65;96490.56;5033532;28;20089;-32
2023/06/06 05:58:15;;;;;;;12.18;8.23;;;;;;;21.79;64.09;96486.78;5040658;28;20049;-34
2023/06/06 06:00:41;;;;;;;13.82;8.20;;;;;;;21.81;64.47;96484.28;5043948;28;20376;-32
2023/06/06 06:03:07;;;;;;;11.98;7.85;;;;;;;21.71;64.94;96494.06;5037467;28;20112;-32
2023/06/06 06:05:32;;;;;;;11.30;8.18;;;;;;;21.63;65.40;96495.06;5037047;28;20021;-32
2023/06/06 06:07:59;;;;;;;11.82;7.80;;;;;;;21.73;65.05;96491.56;5035822;28;20032;-33
2023/06/06 06:10:26;;;;;;;12.60;7.97;;;;;;;21.74;65.26;96489.56;5037421;28;20013;-32
2023/06/06 06:12:51;;;;;;;10.45;6.63;;;;;;;21.91;64.26;96492.34;5043359;28;20024;-32
2023/06/06 06:15:17;;;;;;;12.38;7.13;;;;;;;21.76;64.78;96492.59;5039056;28;20025;-32
2023/06/06 06:17:42;;;;;;;12.40;6.55;;;;;;;21.72;64.73;96490.06;5043194;28;20029;-32
2023/06/06 06:20:10;;;;;;;10.90;6.50;;;;;;;21.73;64.69;96496.34;5036622;28;20022;-32
2023/06/06 06:22:36;;;;;;;11.00;6.75;;;;;;;21.75;64.98;96500.09;5043965;28;20080;-33
2023/06/06 06:25:08;;;;;;;8.82;6.07;;;;;;;21.81;64.71;96505.63;5037136;28;20480;-32
2023/06/06 06:27:35;;;;;;;8.13;5.72;;;;;;;21.39;65.85;96509.25;5051401;28;20025;-32
2023/06/06 06:30:04;;;;;;;10.10;6.60;;;;;;;21.67;64.58;96496.31;5044237;28;20100;-32
2023/06/06 06:32:35;;;;;;;9.55;6.75;;;;;;;21.65;64.82;96492.53;5043898;28;20021;-32
2023/06/06 06:35:02;;;;;;;9.45;6.13;;;;;;;21.65;64.92;96498.81;5036778;28;20021;-32
2023/06/06 06:37:32;;;;;;;10.02;6.82;;;;;;;21.69;65.14;96499.31;5036793;28;20021;-33
2023/06/06 06:40:00;;;;;;;9.57;6.80;;;;;;;21.66;65.28;96499.56;5036845;28;20021;-33
2023/06/06 06:42:26;;;;;;;8.98;6.65;;;;;;;21.79;65.13;96502.59;5040647;28;20025;-33
2023/06/06 06:44:52;;;;;;;10.98;5.97;;;;;;;21.69;65.41;96504.09;5036604;28;20102;-33
2023/06/06 06:47:18;;;;;;;8.40;6.28;;;;;;;21.77;64.81;96508.63;5036446;28;20022;-33
2023/06/06 06:49:44;;;;;;;8.88;5.65;;;;;;;21.71;65.37;96507.13;5036043;28;20032;-32
2023/06/06 06:52:15;;;;;;;9.85;5.40;;;;;;;21.78;64.63;96512.13;5043522;28;20088;-32
2023/06/06 06:54:54;;;;;;;9.82;6.05;;;;;;;21.78;64.72;96521.16;5036152;28;20133;-33
2023/06/06 06:57:21;;;;;;;12.68;5.90;;;;;;;21.77;64.54;96505.09;5030338;28;20029;-32
2023/06/06 06:59:48;;;;;;;8.93;5.30;;;;;;;21.76;65.02;96504.34;5043110;28;20037;-32
2023/06/06 07:02:13;;;;;;;9.25;5.38;;;;;;;21.87;63.73;96514.69;5043145;28;20021;-33
2023/06/06 07:04:39;;;;;;;7.38;5.00;;;;;;;21.67;64.33;96509.34;5036202;28;20025;-33
2023/06/06 07:07:06;;;;;;;7.10;5.05;;;;;;;21.78;64.31;96509.38;5035357;28;20377;-33
2023/06/06 07:09:31;;;;;;;7.57;5.28;;;;;;;21.96;63.58;96510.94;5035990;28;20021;-33
2023/06/06 07:11:56;;;;;;;7.38;5.15;;;;;;;22.06;63.20;96509.47;5041958;28;20418;-32
2023/06/06 07:14:22;;;;;;;8.40;5.18;;;;;;;21.96;63.41;96499.88;5036351;28;20035;-33
2023/06/06 07:16:48;;;;;;;6.75;4.70;;;;;;;21.97;63.63;96509.69;5036022;28;20511;-34
2023/06/06 07:19:13;;;;;;;6.47;4.68;;;;;;;21.91;63.23;96511.66;5036223;28;20036;-33
2023/06/06 07:21:39;;;;;;;7.75;4.75;;;;;;;21.92;63.60;96508.41;5038788;28;20464;-33
2023/06/06 07:24:05;;;;;;;10.68;5.18;;;;;;;22.11;62.89;96505.97;5039459;28;20068;-33
2023/06/06 07:26:31;;;;;;;6.78;4.72;;;;;;;22.16;62.61;96513.47;5044720;28;20108;-32
2023/06/06 07:28:56;;;;;;;9.63;4.93;;;;;;;21.96;63.31;96517.22;5041581;28;20033;-32
2023/06/06 07:31:22;;;;;;;8.65;4.70;;;;;;;21.85;63.49;96506.16;5035172;28;20112;-33
2023/06/06 07:33:48;;;;;;;7.47;4.18;;;;;;;22.11;63.11;96508.72;5042843;28;20024;-32
2023/06/06 07:36:13;;;;;;;7.93;4.75;;;;;;;22.21;62.34;96507.22;5035824;28;20025;-32
2023/06/06 07:38:39;;;;;;;7.63;4.40;;;;;;;22.10;62.74;96510.72;5041503;28;20021;-32
2023/06/06 07:41:04;;;;;;;4.82;3.92;;;;;;;22.12;63.07;96504.72;5035647;28;20465;-34
2023/06/06 07:43:30;;;;;;;6.20;4.57;;;;;;;22.10;62.77;96518.25;5034977;28;20028;-33
2023/06/06 07:45:55;;;;;;;8.35;4.22;;;;;;;22.22;62.25;96511.47;5035901;28;20025;-33
2023/06/06 07:48:21;;;;;;;6.78;4.18;;;;;;;22.12;62.76;96508.22;5035523;28;20022;-32
2023/06/06 07:50:46;;;;;;;5.85;4.20;;;;;;;22.11;62.72;96514.25;5043022;28;20123;-33
2023/06/06 07:53:12;;;;;;;6.35;4.45;;;;;;;22.23;62.17;96515.75;5042263;28;20072;-33
2023/06/06 07:55:37;;;;;;;6.38;4.30;;;;;;;22.04;62.72;96506.44;5035174;28;20048;-33
2023/06/06 07:58:10;;;;;;;8.88;4.88;;;;;;;22.03;63.09;96499.41;5035291;28;20063;-34
2023/06/06 08:00:44;;;;;;;7.27;4.53;;;;;;;22.10;63.13;96501.69;5035187;28;20113;-32
2023/06/06 08:03:11;;;;;;;7.65;4.40;;;;;;;21.94;63.34;96497.63;5035405;28;20368;-33
2023/06/06 08:05:38;;;;;;;6.47;4.90;;;;;;;22.06;62.32;96499.16;5042490;28;20049;-33
2023/06/06 08:08:06;;;;;;;6.18;4.43;;;;;;;22.20;63.04;96505.69;5042550;28;20028;-32
2023/06/06 08:10:32;;;;;;;6.22;4.78;;;;;;;22.28;62.68;96501.19;5041519;28;20040;-33
2023/06/06 08:12:57;;;;;;;7.55;4.30;;;;;;;22.11;63.19;96505.97;5034670;28;20412;-33
2023/06/06 08:15:23;;;;;;;7.13;4.32;;;;;;;22.26;62.25;96500.91;5035429;28;20021;-32
2023/06/06 08:17:48;;;;;;;6.18;4.60;;;;;;;22.22;62.13;96505.97;5040101;28;20104;-33
2023/06/06 08:20:14;;;;;;;6.50;4.20;;;;;;;22.28;62.26;96503.94;5036783;28;20017;-33
2023/06/06 08:22:51;;;;;;;6.43;4.30;;;;;;;22.17;62.63;96504.69;5041444;28;20482;-33
2023/06/06 08:25:17;;;;;;;9.15;4.45;;;;;;;22.16;62.59;96505.19;5034612;28;20079;-32
2023/06/06 08:27:42;;;;;;;6.82;3.85;;;;;;;22.43;61.15;96500.94;5042052;28;20029;-34
2023/06/06 08:30:09;;;;;;;5.65;3.78;;;;;;;22.43;61.43;96504.44;5034438;28;20032;-32
2023/06/06 08:32:34;;;;;;;5.50;3.88;;;;;;;22.53;60.75;96502.16;5041365;28;20033;-33
2023/06/06 08:35:03;;;;;;;4.72;3.95;;;;;;;22.37;61.73;96489.13;5041714;28;20059;-33
2023/06/06 08:37:30;;;;;;;5.35;3.90;;;;;;;22.34;61.50;96493.66;5040574;28;20396;-33
2023/06/06 08:39:56;;;;;;;5.60;3.40;;;;;;;22.32;60.97;96495.41;5025881;28;20022;-32
2023/06/06 08:42:22;;;;;;;6.30;3.90;;;;;;;22.36;61.11;96493.91;5034544;28;20520;-32
2023/06/06 08:44:50;;;;;;;6.15;3.78;;;;;;;22.52;60.28;96500.66;5034617;28;20033;-32
2023/06/06 08:47:17;;;;;;;5.00;3.70;;;;;;;22.41;61.29;96504.19;5039173;28;20044;-33
2023/06/06 08:49:43;;;;;;;6.60;3.85;;;;;;;22.51;61.12;96510.22;5031778;28;20064;-32
2023/06/06 08:52:09;;;;;;;5.85;4.07;;;;;;;22.55;60.81;96510.72;5034361;28;20473;-32
2023/06/06 08:54:36;;;;;;;8.57;5.28;;;;;;;22.37;62.10;96512.00;5033856;28;20054;-33
2023/06/06 08:57:08;;;;;;;11.30;4.75;;;;;;;22.54;61.39;96504.44;5034258;28;20513;-33
2023/06/06 08:59:37;;;;;;;5.80;4.15;;;;;;;22.56;61.20;96510.22;5034138;28;20025;-32
2023/06/06 09:02:05;;;;;;;8.35;3.85;;;;;;;22.61;61.02;96505.19;5034394;28;20025;-33
2023/06/06 09:04:31;;;;;;;6.07;3.78;;;;;;;22.55;61.00;96503.19;5041038;28;20155;-33
2023/06/06 09:07:00;;;;;;;7.38;3.78;;;;;;;22.50;61.04;96514.97;5033944;28;20388;-32
2023/06/06 09:09:27;;;;;;;7.72;3.80;;;;;;;22.45;61.27;96509.47;5034547;28;20155;-33
2023/06/06 09:11:53;;;;;;;4.78;3.50;;;;;;;22.49;60.44;96510.72;5032442;28;20532;-33
2023/06/06 09:14:18;;;;;;;6.60;3.60;;;;;;;22.43;60.59;96509.22;5034098;28;20025;-33
2023/06/06 09:16:44;;;;;;;5.38;3.72;;;;;;;22.54;60.38;96512.72;5038603;28;20376;-34
2023/06/06 09:19:10;;;;;;;6.57;3.95;;;;;;;22.46;60.64;96508.97;5035094;28;20033;-34
2023/06/06 09:21:36;;;;;;;4.72;3.45;;;;;;;22.50;60.44;96512.22;5040939;28;20466;-33
2023/06/06 09:24:02;;;;;;;8.30;4.03;;;;;;;22.32;60.95;96512.75;5034007;28;20027;-33
2023/06/06 09:26:27;;;;;;;6.97;3.75;;;;;;;22.45;60.91;96512.22;5035064;28;20416;-33
2023/06/06 09:28:54;;;;;;;6.55;3.70;;;;;;;22.36;61.15;96510.50;5038272;28;20057;-33
2023/06/06 09:31:32;;;;;;;5.22;3.50;;;;;;;22.46;60.80;96503.44;5038946;28;20445;-33
2023/06/06 09:33:59;;;;;;;7.30;3.80;;;;;;;22.47;61.06;96515.25;5034127;28;20017;-33
2023/06/06 09:36:28;;;;;;;6.93;4.63;;;;;;;22.41;61.52;96512.47;5033098;28;20393;-33
2023/06/06 09:39:15;;;;;;;5.68;3.95;;;;;;;22.49;61.35;96516.25;5040846;28;20026;-32
2023/06/06 09:41:45;;;;;;;4.75;3.92;;;;;;;22.49;62.54;96516.25;5033860;28;20021;-33
2023/06/06 09:44:20;;;;;;;10.07;4.35;;;;;;;22.36;62.60;96521.53;5040709;28;20083;-33
2023/06/06 09:46:48;;;;;;;6.05;4.10;;;;;;;22.46;62.21;96517.25;5040863;28;20070;-33
2023/06/06 09:49:14;;;;;;;6.20;3.95;;;;;;;22.46;62.64;96525.56;5033710;28;20029;-33
2023/06/06 09:51:43;;;;;;;6.00;4.50;;;;;;;22.36;63.50;96523.53;5040623;28;20072;-33
2023/06/06 09:54:12;;;;;;;8.30;4.65;;;;;;;22.33;64.37;96527.31;5026235;28;20025;-34
2023/06/06 09:56:42;;;;;;;8.20;4.85;;;;;;;22.23;64.64;96521.28;5040313;28;20079;-33
2023/06/06 09:59:09;;;;;;;6.80;4.60;;;;;;;22.33;64.60;96517.00;5034735;28;20026;-33
2023/06/06 10:01:38;;;;;;;5.10;3.75;;;;;;;22.31;64.08;96516.00;5038266;28;20017;-33
2023/06/06 10:04:04;;;;;;;5.53;3.75;;;;;;;22.37;63.43;96517.53;5033680;28;20044;-33
2023/06/06 10:06:33;;;;;;;5.57;3.85;;;;;;;22.49;62.87;96523.78;5033285;28;20101;-32
2023/06/06 10:09:04;;;;;;;7.15;4.68;;;;;;;22.36;63.85;96527.06;5040569;28;20013;-32
2023/06/06 10:11:30;;;;;;;5.75;4.18;;;;;;;22.46;63.43;96530.31;5026128;28;20076;-33
2023/06/06 10:13:56;;;;;;;7.40;4.22;;;;;;;22.50;63.48;96526.03;5046852;28;20461;-35
2023/06/06 10:16:22;;;;;;;7.32;4.47;;;;;;;22.54;62.99;96526.53;5040785;28;20148;-33
2023/06/06 10:18:48;;;;;;;4.93;4.03;;;;;;;22.65;63.22;96530.56;5033145;28;20072;-32
2023/06/06 10:21:17;;;;;;;6.60;3.72;;;;;;;22.66;62.97;96532.06;5032855;28;20030;-32
2023/06/06 10:23:43;;;;;;;6.40;3.90;;;;;;;22.73;61.72;96528.81;5033200;28;20021;-32
2023/06/06 10:26:17;;;;;;;6.75;4.03;;;;;;;22.73;62.56;96531.56;5039981;28;20107;-32
2023/06/06 10:29:01;;;;;;;9.85;3.63;;;;;;;22.60;62.74;96517.50;5043667;28;20021;-33
2023/06/06 10:31:31;;;;;;;6.00;3.42;;;;;;;22.77;62.18;96521.00;5035112;28;20388;-34
2023/06/06 10:34:02;;;;;;;4.82;3.80;;;;;;;22.59;62.87;96511.22;5038200;28;20453;-34
2023/06/06 10:36:38;;;;;;;4.65;3.30;;;;;;;22.70;62.89;96504.91;5033074;28;20060;-32
2023/06/06 10:39:18;;;;;;;4.72;3.22;;;;;;;22.65;63.88;96498.13;5031443;28;20075;-33
2023/06/06 10:41:53;;;;;;;7.50;3.67;;;;;;;22.74;63.09;96500.66;5035023;28;20393;-32
2023/06/06 10:44:25;;;;;;;5.22;3.83;;;;;;;22.83;62.72;96511.47;5037720;28;20056;-34
2023/06/06 10:46:51;;;;;;;4.90;3.17;;;;;;;22.70;64.75;96508.44;5036344;28;20044;-33
2023/06/06 10:49:16;;;;;;;7.40;3.22;;;;;;;22.79;64.54;96505.44;5036786;28;20037;-33
2023/06/06 10:51:42;;;;;;;6.45;3.40;;;;;;;22.81;64.19;96502.16;5043684;28;20029;-33
2023/06/06 10:54:16;;;;;;;5.45;2.72;;;;;;;22.93;63.59;96503.66;5042253;28;20025;-33
2023/06/06 10:56:55;;;;;;;5.60;3.15;;;;;;;22.75;63.91;96502.13;5040591;28;20091;-33
2023/06/06 10:59:31;;;;;;;4.95;3.40;;;;;;;22.81;62.89;96504.94;5030004;28;20108;-32
2023/06/06 11:01:58;;;;;;;4.93;3.75;;;;;;;22.83;62.66;96507.94;5036642;28;20128;-33
2023/06/06 11:04:27;;;;;;;5.15;3.40;;;;;;;22.79;63.15;96502.66;5036051;28;20028;-32
2023/06/06 11:07:00;;;;;;;4.82;3.13;;;;;;;22.86;61.87;96504.94;5042901;28;20028;-33
2023/06/06 11:09:31;;;;;;;4.70;3.47;;;;;;;22.93;62.01;96512.69;5037996;28;20017;-33
2023/06/06 11:12:16;;;;;;;3.63;2.58;;;;;;;22.80;61.55;96511.72;5039190;28;20116;-33
2023/06/06 11:15:25;;;;;;;5.15;3.15;;;;;;;22.96;60.56;96513.69;5040150;28;20112;-33
2023/06/06 11:17:59;;;;;;;4.80;3.25;;;;;;;22.94;60.72;96513.44;5037032;28;20029;-33
2023/06/06 11:20:26;;;;;;;5.93;3.10;;;;;;;22.95;61.23;96514.19;5044107;28;20064;-33
2023/06/06 11:23:03;;;;;;;7.68;4.18;;;;;;;22.95;61.82;96517.72;5043141;28;20014;-33
2023/06/06 11:25:35;;;;;;;5.72;3.55;;;;;;;22.98;61.81;96524.25;5035844;28;20025;-33
2023/06/06 11:28:01;;;;;;;4.53;3.40;;;;;;;23.05;61.53;96529.25;5034303;28;20052;-33
2023/06/06 11:30:34;;;;;;;5.57;3.80;;;;;;;23.07;62.35;96523.97;5036083;28;20079;-35
2023/06/06 11:33:00;;;;;;;;;;;;;;;23.07;60.98;96521.22;5042809;28;20013;-33